createdAt,value
2018-09-23T00:02:00.797Z,50.78
2018-09-23T00:04:29.165Z,51.32
2018-09-23T00:06:57.547Z,51.42
2018-09-23T00:09:25.826Z,51.45
2018-09-23T00:11:54.086Z,50.89
2018-09-23T00:14:22.448Z,50.68
2018-09-23T00:16:50.765Z,50.90
2018-09-23T00:19:19.095Z,51.25
2018-09-23T00:21:47.363Z,50.94
2018-09-23T00:24:15.598Z,50.90
2018-09-23T00:26:43.938Z,51.22
2018-09-23T00:29:12.268Z,51.16
2018-09-23T00:31:40.463Z,51.26
2018-09-23T00:34:08.741Z,51.40
2018-09-23T00:36:37.070Z,51.55
2018-09-23T00:39:05.921Z,51.64
2018-09-23T00:41:34.155Z,51.46
2018-09-23T00:44:02.427Z,50.84
2018-09-23T00:46:30.772Z,50.92
2018-09-23T00:48:59.101Z,51.49
2018-09-23T00:51:27.480Z,51.17
2018-09-23T00:53:55.818Z,51.78
2018-09-23T00:56:24.053Z,51.24
2018-09-23T00:58:52.756Z,51.36
2018-09-23T01:01:21.168Z,51.21
2018-09-23T01:03:49.854Z,51.50
2018-09-23T01:06:18.091Z,51.23
2018-09-23T01:08:46.363Z,51.75
2018-09-23T01:11:15.319Z,51.75
2018-09-23T01:13:43.579Z,51.23
2018-09-23T01:16:13.627Z,51.38
2018-09-23T01:18:41.875Z,51.47
2018-09-23T01:21:10.101Z,51.25
2018-09-23T01:23:38.511Z,51.73
2018-09-23T01:26:06.868Z,51.78
2018-09-23T01:28:35.111Z,51.58
2018-09-23T01:31:03.339Z,51.55
2018-09-23T01:33:32.499Z,51.48
2018-09-23T01:36:00.707Z,51.64
2018-09-23T01:38:28.932Z,51.69
2018-09-23T01:40:57.243Z,51.29
2018-09-23T01:43:25.579Z,51.65
2018-09-23T01:45:53.927Z,51.11
2018-09-23T01:48:22.184Z,50.92
2018-09-23T01:55:39.460Z,51.09
2018-09-23T01:58:07.733Z,51.43
2018-09-23T02:00:36.007Z,51.15
2018-09-23T02:03:04.342Z,51.03
2018-09-23T02:05:32.589Z,50.69
2018-09-23T02:08:00.856Z,50.85
2018-09-23T02:10:29.111Z,50.96
2018-09-23T02:12:57.501Z,51.44
2018-09-23T02:15:25.788Z,51.63
2018-09-23T02:17:54.011Z,51.24
2018-09-23T02:20:22.268Z,50.83
2018-09-23T02:22:50.522Z,50.79
2018-09-23T02:25:18.849Z,51.37
2018-09-23T02:27:47.131Z,51.44
2018-09-23T02:30:15.435Z,51.50
2018-09-23T02:32:43.712Z,51.70
2018-09-23T02:35:11.944Z,51.51
2018-09-23T02:37:40.185Z,51.29
2018-09-23T02:40:08.450Z,50.84
2018-09-23T02:42:36.802Z,51.00
2018-09-23T02:45:05.419Z,51.22
2018-09-23T02:47:33.727Z,51.20
2018-09-23T02:50:02.011Z,51.65
2018-09-23T02:52:30.247Z,51.56
2018-09-23T02:54:58.572Z,51.01
2018-09-23T02:57:26.925Z,50.94
2018-09-23T02:59:55.173Z,51.07
2018-09-23T03:02:23.470Z,51.07
2018-09-23T03:04:51.750Z,51.56
2018-09-23T03:07:19.926Z,51.14
2018-09-23T03:09:48.171Z,51.34
2018-09-23T03:12:16.368Z,51.26
2018-09-23T03:14:44.620Z,51.02
2018-09-23T03:17:12.922Z,51.52
2018-09-23T03:19:41.159Z,51.09
2018-09-23T03:22:09.503Z,51.48
2018-09-23T03:24:37.777Z,51.13
2018-09-23T03:27:06.000Z,51.37
2018-09-23T03:29:34.271Z,51.45
2018-09-23T03:32:02.533Z,51.01
2018-09-23T03:34:30.763Z,51.60
2018-09-23T03:36:59.005Z,51.21
2018-09-23T03:39:27.251Z,51.02
2018-09-23T03:41:55.745Z,51.36
2018-09-23T03:44:23.981Z,51.00
2018-09-23T03:46:52.247Z,51.41
2018-09-23T03:49:20.480Z,51.55
2018-09-23T03:51:48.849Z,51.70
2018-09-23T03:54:17.068Z,51.66
2018-09-23T03:56:45.302Z,50.92
2018-09-23T03:59:13.679Z,51.41
2018-09-23T04:01:41.899Z,50.99
2018-09-23T04:04:10.569Z,51.21
2018-09-23T04:06:38.931Z,51.24
2018-09-23T04:09:07.957Z,51.54
2018-09-23T04:11:36.232Z,51.09
2018-09-23T04:14:04.527Z,51.12
2018-09-23T04:16:32.829Z,51.14
2018-09-23T04:19:01.051Z,51.18
2018-09-23T04:21:29.317Z,51.25
2018-09-23T04:23:57.796Z,51.48
2018-09-23T04:26:26.093Z,51.23
2018-09-23T04:28:54.306Z,51.14
2018-09-23T04:31:22.545Z,51.49
2018-09-23T04:33:50.768Z,51.16
2018-09-23T04:36:19.057Z,51.21
2018-09-23T04:38:47.331Z,51.61
2018-09-23T04:41:15.672Z,51.38
2018-09-23T04:43:43.933Z,51.61
2018-09-23T04:46:12.278Z,51.54
2018-09-23T04:48:40.559Z,51.17
2018-09-23T04:51:08.839Z,51.29
2018-09-23T04:53:37.062Z,51.36
2018-09-23T04:56:05.501Z,51.59
2018-09-23T04:58:33.954Z,51.20
2018-09-23T05:01:02.216Z,51.52
2018-09-23T05:03:30.502Z,51.20
2018-09-23T05:05:58.849Z,51.64
2018-09-23T05:08:27.099Z,51.76
2018-09-23T05:10:55.473Z,51.74
2018-09-23T05:13:23.785Z,51.78
2018-09-23T05:15:52.071Z,51.62
2018-09-23T05:18:20.326Z,51.30
2018-09-23T05:20:48.654Z,51.86
2018-09-23T05:23:16.941Z,52.02
2018-09-23T05:25:45.206Z,52.05
2018-09-23T05:28:13.409Z,51.74
2018-09-23T05:30:41.676Z,51.49
2018-09-23T05:33:09.953Z,51.88
2018-09-23T05:35:38.271Z,52.01
2018-09-23T05:38:06.600Z,52.00
2018-09-23T05:40:34.887Z,51.67
2018-09-23T05:43:03.181Z,51.55
2018-09-23T05:45:31.590Z,51.62
2018-09-23T05:47:59.945Z,52.11
2018-09-23T05:50:28.206Z,51.83
2018-09-23T05:52:56.699Z,52.17
2018-09-23T05:55:24.923Z,51.80
2018-09-23T05:57:53.191Z,52.14
2018-09-23T06:00:21.555Z,52.13
2018-09-23T06:02:49.847Z,51.67
2018-09-23T06:05:18.106Z,52.14
2018-09-23T06:07:46.354Z,52.19
2018-09-23T06:10:14.614Z,52.21
2018-09-23T06:12:42.897Z,52.23
2018-09-23T06:15:11.154Z,52.13
2018-09-23T06:17:39.397Z,52.08
2018-09-23T06:20:07.766Z,52.22
2018-09-23T06:22:36.039Z,52.18
2018-09-23T06:25:04.476Z,52.08
2018-09-23T06:27:32.694Z,51.77
2018-09-23T06:30:00.989Z,51.89
2018-09-23T06:32:29.373Z,51.99
2018-09-23T06:34:57.735Z,52.29
2018-09-23T06:37:25.965Z,52.02
2018-09-23T06:39:54.275Z,52.33
2018-09-23T06:42:22.491Z,52.31
2018-09-23T06:44:50.775Z,52.06
2018-09-23T06:47:19.019Z,51.88
2018-09-23T06:49:47.307Z,51.96
2018-09-23T06:52:15.543Z,52.31
2018-09-23T06:54:43.847Z,52.31
2018-09-23T06:57:12.175Z,52.14
2018-09-23T06:59:40.431Z,52.13
2018-09-23T07:02:08.619Z,52.35
2018-09-23T07:04:36.962Z,52.45
2018-09-23T07:07:05.213Z,52.17
2018-09-23T07:09:33.508Z,52.41
2018-09-23T07:12:01.773Z,51.99
2018-09-23T07:14:30.043Z,51.99
2018-09-23T07:16:58.283Z,52.08
2018-09-23T07:19:26.683Z,52.45
2018-09-23T07:21:54.949Z,52.47
2018-09-23T07:24:23.183Z,52.05
2018-09-23T07:26:51.489Z,51.99
2018-09-23T07:29:19.758Z,52.44
2018-09-23T07:31:48.054Z,52.53
2018-09-23T07:34:16.406Z,52.15
2018-09-23T07:36:44.703Z,52.50
2018-09-23T07:39:12.971Z,52.46
2018-09-23T07:41:41.847Z,52.22
2018-09-23T07:44:10.385Z,52.56
2018-09-23T07:46:38.690Z,52.31
2018-09-23T07:49:07.105Z,52.87
2018-09-23T07:51:35.363Z,52.81
2018-09-23T07:54:03.635Z,52.71
2018-09-23T07:56:31.881Z,52.68
2018-09-23T07:59:00.159Z,52.67
2018-09-23T08:01:28.430Z,52.89
2018-09-23T08:03:56.823Z,52.46
2018-09-23T08:06:25.165Z,52.85
2018-09-23T08:08:53.550Z,52.32
2018-09-23T08:11:21.825Z,52.38
2018-09-23T08:13:50.191Z,52.60
2018-09-23T08:16:18.367Z,52.97
2018-09-23T08:18:46.588Z,53.02
2018-09-23T08:21:14.866Z,52.84
2018-09-23T08:23:43.129Z,52.88
2018-09-23T08:26:11.386Z,52.55
2018-09-23T08:28:39.642Z,52.79
2018-09-23T08:31:07.881Z,52.75
2018-09-23T08:33:36.100Z,53.12
2018-09-23T08:36:04.367Z,52.70
2018-09-23T08:38:32.629Z,52.78
2018-09-23T08:41:00.923Z,52.80
2018-09-23T08:43:29.289Z,53.06
2018-09-23T08:45:57.751Z,53.15
2018-09-23T08:48:26.053Z,52.96
2018-09-23T08:50:54.350Z,53.35
2018-09-23T08:53:22.645Z,53.41
2018-09-23T08:55:50.982Z,53.15
2018-09-23T08:58:19.207Z,53.61
2018-09-23T09:00:47.545Z,53.64
2018-09-23T09:03:15.839Z,53.67
2018-09-23T09:05:44.102Z,53.42
2018-09-23T09:08:12.378Z,53.24
2018-09-23T09:10:40.679Z,53.28
2018-09-23T09:13:08.918Z,53.56
2018-09-23T09:15:37.181Z,53.39
2018-09-23T09:18:05.574Z,53.63
2018-09-23T09:20:33.846Z,53.47
2018-09-23T09:23:03.460Z,53.82
2018-09-23T09:25:31.675Z,53.68
2018-09-23T09:28:00.285Z,53.40
2018-09-23T09:30:30.571Z,53.43
2018-09-23T09:32:58.813Z,53.50
2018-09-23T09:35:27.152Z,53.95
2018-09-23T09:37:56.361Z,53.77
2018-09-23T09:40:25.819Z,53.95
2018-09-23T09:42:54.126Z,53.62
2018-09-23T09:45:22.424Z,53.97
2018-09-23T09:47:54.215Z,53.40
2018-09-23T09:50:22.711Z,53.46
2018-09-23T09:52:51.087Z,53.52
2018-09-23T09:55:19.394Z,53.46
2018-09-23T09:57:47.812Z,54.02
2018-09-23T10:00:20.231Z,53.57
2018-09-23T10:02:48.567Z,53.88
2018-09-23T10:05:16.896Z,53.46
2018-09-23T10:07:45.150Z,53.41
2018-09-23T10:10:13.451Z,53.43
2018-09-23T10:12:41.710Z,53.88
2018-09-23T10:15:09.999Z,53.69
2018-09-23T10:17:38.268Z,53.53
2018-09-23T10:20:07.038Z,53.27
2018-09-23T10:22:36.654Z,53.71
2018-09-23T10:25:06.611Z,53.24
2018-09-23T10:27:35.929Z,53.72
2018-09-23T10:30:05.845Z,53.47
2018-09-23T10:32:35.073Z,53.54
2018-09-23T10:35:05.308Z,53.29
2018-09-23T10:37:40.477Z,53.70
2018-09-23T10:40:08.897Z,53.58
2018-09-23T10:42:37.219Z,53.43
2018-09-23T10:45:05.623Z,53.58
2018-09-23T10:47:33.899Z,53.66
2018-09-23T10:50:02.162Z,53.14
2018-09-23T10:52:30.551Z,53.23
2018-09-23T10:54:58.957Z,53.65
2018-09-23T10:57:27.165Z,53.31
2018-09-23T10:59:56.036Z,53.70
2018-09-23T11:02:24.248Z,53.50
2018-09-23T11:04:52.590Z,53.62
2018-09-23T11:07:21.091Z,53.63
2018-09-23T11:09:49.468Z,53.72
2018-09-23T11:12:17.685Z,53.40
2018-09-23T11:14:46.099Z,53.31
2018-09-23T11:17:14.667Z,53.48
2018-09-23T11:19:43.151Z,53.36
2018-09-23T11:22:11.443Z,53.60
2018-09-23T11:24:39.766Z,53.79
2018-09-23T11:27:08.165Z,53.33
2018-09-23T11:29:36.490Z,53.79
2018-09-23T11:32:04.763Z,53.34
2018-09-23T11:34:33.062Z,53.56
2018-09-23T11:37:01.429Z,53.62
2018-09-23T11:39:29.707Z,53.62
2018-09-23T11:41:59.137Z,53.54
2018-09-23T11:44:27.458Z,53.86
2018-09-23T11:46:55.689Z,53.40
2018-09-23T11:49:23.969Z,53.71
2018-09-23T11:51:52.264Z,53.72
2018-09-23T11:54:20.647Z,53.77
2018-09-23T11:56:49.020Z,53.68
2018-09-23T11:59:17.387Z,53.55
2018-09-23T12:01:45.642Z,53.88
2018-09-23T12:04:13.905Z,53.42
2018-09-23T12:06:42.318Z,53.38
2018-09-23T12:09:12.471Z,53.64
2018-09-23T12:11:40.796Z,53.63
2018-09-23T12:14:09.323Z,53.72
2018-09-23T12:16:37.589Z,54.00
2018-09-23T12:19:05.886Z,53.57
2018-09-23T12:21:34.142Z,53.42
2018-09-23T12:24:02.405Z,53.81
2018-09-23T12:26:30.765Z,53.80
2018-09-23T12:28:58.985Z,53.48
2018-09-23T12:31:27.259Z,53.77
2018-09-23T12:33:55.471Z,53.68
2018-09-23T12:36:23.736Z,54.10
2018-09-23T12:38:52.045Z,54.04
2018-09-23T12:41:20.303Z,54.02
2018-09-23T12:43:49.309Z,53.75
2018-09-23T12:46:19.672Z,54.11
2018-09-23T12:48:48.064Z,54.11
2018-09-23T12:51:16.441Z,53.56
2018-09-23T12:53:46.681Z,54.01
2018-09-23T12:56:15.014Z,53.64
2018-09-23T12:58:43.277Z,53.70
2018-09-23T13:01:11.690Z,53.59
2018-09-23T13:03:40.063Z,53.62
2018-09-23T13:06:08.323Z,54.03
2018-09-23T13:08:36.631Z,53.57
2018-09-23T13:11:05.082Z,53.57
2018-09-23T13:13:33.379Z,53.79
2018-09-23T13:16:01.635Z,53.66
2018-09-23T13:18:29.873Z,54.00
2018-09-23T13:20:58.111Z,53.74
2018-09-23T13:23:26.536Z,54.22
2018-09-23T13:25:54.767Z,54.50
2018-09-23T13:28:23.040Z,54.23
2018-09-23T13:30:51.340Z,54.65
2018-09-23T13:33:19.959Z,54.44
2018-09-23T13:35:48.289Z,54.68
2018-09-23T13:38:16.660Z,54.95
2018-09-23T13:40:45.235Z,54.83
2018-09-23T13:43:13.533Z,55.34
2018-09-23T13:45:41.932Z,56.09
2018-09-23T13:48:10.163Z,56.29
2018-09-23T13:50:38.481Z,56.82
2018-09-23T13:53:06.834Z,56.74
2018-09-23T13:55:35.102Z,56.79
2018-09-23T13:58:03.423Z,56.81
2018-09-23T14:00:31.691Z,57.36
2018-09-23T14:02:59.953Z,57.52
2018-09-23T14:05:28.193Z,58.07
2018-09-23T14:07:56.467Z,57.87
2018-09-23T14:10:24.751Z,57.76
2018-09-23T14:12:53.019Z,58.33
2018-09-23T14:15:21.246Z,58.43
2018-09-23T14:17:49.505Z,58.34
2018-09-23T14:20:17.772Z,58.16
2018-09-23T14:22:46.043Z,58.31
2018-09-23T14:25:14.261Z,58.15
2018-09-23T14:27:42.503Z,58.39
2018-09-23T14:30:10.793Z,57.77
2018-09-23T14:32:39.066Z,57.64
2018-09-23T14:35:07.321Z,58.18
2018-09-23T14:37:35.527Z,58.14
2018-09-23T14:40:03.860Z,57.86
2018-09-23T14:42:32.068Z,58.12
2018-09-23T14:45:00.411Z,57.85
2018-09-23T14:47:28.607Z,58.08
2018-09-23T14:49:56.861Z,57.47
2018-09-23T14:52:25.170Z,57.42
2018-09-23T14:54:53.520Z,57.35
2018-09-23T14:57:21.715Z,57.50
2018-09-23T14:59:54.192Z,57.56
2018-09-23T15:02:18.329Z,57.47
2018-09-23T15:04:46.545Z,57.72
2018-09-23T15:07:14.896Z,57.93
2018-09-23T15:09:43.318Z,57.35
2018-09-23T15:12:11.599Z,57.71
2018-09-23T15:14:39.923Z,57.39
2018-09-23T15:17:08.193Z,57.26
2018-09-23T15:19:36.645Z,57.66
2018-09-23T15:22:04.982Z,57.65
2018-09-23T15:24:33.356Z,57.31
2018-09-23T15:27:01.719Z,57.42
2018-09-23T15:29:30.048Z,57.94
2018-09-23T15:31:59.031Z,57.96
2018-09-23T15:34:27.320Z,58.18
2018-09-23T15:36:55.586Z,57.73
2018-09-23T15:39:23.925Z,58.04
2018-09-23T15:41:52.232Z,57.92
2018-09-23T15:44:20.475Z,58.08
2018-09-23T15:46:48.979Z,58.40
2018-09-23T15:49:17.219Z,58.29
2018-09-23T15:51:45.483Z,58.51
2018-09-23T15:54:13.755Z,58.40
2018-09-23T15:56:42.215Z,58.88
2018-09-23T15:59:10.523Z,58.70
2018-09-23T16:01:38.989Z,58.41
2018-09-23T16:04:07.665Z,59.12
2018-09-23T16:06:35.898Z,58.86
2018-09-23T16:09:05.021Z,58.91
2018-09-23T16:11:33.326Z,59.04
2018-09-23T16:14:01.680Z,58.99
2018-09-23T16:16:30.191Z,58.93
2018-09-23T16:18:58.463Z,59.29
2018-09-23T16:21:26.872Z,59.45
2018-09-23T16:23:55.123Z,59.18
2018-09-23T16:26:23.453Z,59.17
2018-09-23T16:28:51.715Z,59.61
2018-09-23T16:31:20.013Z,59.42
2018-09-23T16:33:48.278Z,59.66
2018-09-23T16:36:16.725Z,59.48
2018-09-23T16:38:45.041Z,59.84
2018-09-23T16:41:13.316Z,60.14
2018-09-23T16:43:41.577Z,60.40
2018-09-23T16:46:09.841Z,60.12
2018-09-23T16:48:38.137Z,60.02
2018-09-23T16:51:06.625Z,60.11
2018-09-23T16:53:34.889Z,60.25
2018-09-23T16:56:03.115Z,60.46
2018-09-23T16:58:31.361Z,60.85
2018-09-23T17:00:59.662Z,61.08
2018-09-23T17:03:27.847Z,60.62
2018-09-23T17:05:56.189Z,60.68
2018-09-23T17:08:24.453Z,60.53
2018-09-23T17:10:52.774Z,60.61
2018-09-23T17:13:21.124Z,60.38
2018-09-23T17:15:49.381Z,60.37
2018-09-23T17:18:17.616Z,60.47
2018-09-23T17:20:45.986Z,60.51
2018-09-23T17:23:14.335Z,60.04
2018-09-23T17:25:42.547Z,59.78
2018-09-23T17:28:10.861Z,59.92
2018-09-23T17:30:39.001Z,60.24
2018-09-23T17:33:07.261Z,60.26
2018-09-23T17:35:35.536Z,59.90
2018-09-23T17:38:03.746Z,60.07
2018-09-23T17:40:32.911Z,59.85
2018-09-23T17:43:01.211Z,60.28
2018-09-23T17:45:29.570Z,59.84
2018-09-23T17:47:57.851Z,60.08
2018-09-23T17:50:26.246Z,59.61
2018-09-23T17:52:54.527Z,60.01
2018-09-23T17:55:22.796Z,59.64
2018-09-23T17:57:51.166Z,60.25
2018-09-23T18:00:19.539Z,59.70
2018-09-23T18:02:47.857Z,59.66
2018-09-23T18:05:16.221Z,59.44
2018-09-23T18:07:44.619Z,59.90
2018-09-23T18:10:12.931Z,59.50
2018-09-23T18:12:41.213Z,59.48
2018-09-23T18:15:09.594Z,59.44
2018-09-23T18:17:37.856Z,59.72
2018-09-23T18:20:06.160Z,59.27
2018-09-23T18:22:34.455Z,59.86
2018-09-23T18:25:02.716Z,59.45
2018-09-23T18:27:30.987Z,59.75
2018-09-23T18:29:59.309Z,59.74
2018-09-23T18:32:29.006Z,59.26
2018-09-23T18:34:58.535Z,59.69
2018-09-23T18:37:26.961Z,59.04
2018-09-23T18:39:55.844Z,59.40
2018-09-23T18:42:27.995Z,59.30
2018-09-23T18:44:56.356Z,58.88
2018-09-23T18:47:24.583Z,59.29
2018-09-23T18:49:53.968Z,58.67
2018-09-23T18:52:22.198Z,58.79
2018-09-23T18:54:55.787Z,58.74
2018-09-23T18:57:24.007Z,58.51
2018-09-23T18:59:52.303Z,58.73
2018-09-23T19:02:20.546Z,58.94
2018-09-23T19:04:48.903Z,58.90
2018-09-23T19:07:17.202Z,58.49
2018-09-23T19:09:45.556Z,58.80
2018-09-23T19:12:14.065Z,58.50
2018-09-23T19:14:42.483Z,58.64
2018-09-23T19:17:10.777Z,58.29
2018-09-23T19:19:44.340Z,58.33
2018-09-23T19:22:17.973Z,58.27
2018-09-23T19:24:46.212Z,58.09
2018-09-23T19:27:14.475Z,58.10
2018-09-23T19:29:42.826Z,58.55
2018-09-23T19:32:11.120Z,58.04
2018-09-23T19:34:39.429Z,58.05
2018-09-23T19:37:07.689Z,58.04
2018-09-23T19:39:35.891Z,58.27
2018-09-23T19:42:04.764Z,58.07
2018-09-23T19:44:33.081Z,58.37
2018-09-23T19:47:01.364Z,57.98
2018-09-23T19:49:29.686Z,57.84
2018-09-23T19:51:58.120Z,58.13
2018-09-23T19:54:26.905Z,57.96
2018-09-23T19:56:55.207Z,57.72
2018-09-23T19:59:23.485Z,58.09
2018-09-23T20:01:51.766Z,58.02
2018-09-23T20:04:20.040Z,57.95
2018-09-23T20:06:48.359Z,58.09
2018-09-23T20:09:16.717Z,57.84
2018-09-23T20:11:45.014Z,58.02
2018-09-23T20:14:13.335Z,58.27
2018-09-23T20:16:41.811Z,58.49
2018-09-23T20:19:11.245Z,58.33
2018-09-23T20:21:39.551Z,58.54
2018-09-23T20:24:07.861Z,58.29
2018-09-23T20:26:36.703Z,58.65
2018-09-23T20:29:05.413Z,58.68
2018-09-23T20:31:35.250Z,58.31
2018-09-23T20:34:03.790Z,58.58
2018-09-23T20:36:32.359Z,58.88
2018-09-23T20:39:00.994Z,58.26
2018-09-23T20:41:29.580Z,58.66
2018-09-23T20:43:57.936Z,58.62
2018-09-23T20:46:26.507Z,58.60
2018-09-23T20:48:54.728Z,58.07
2018-09-23T20:51:23.049Z,58.39
2018-09-23T20:53:51.329Z,58.13
2018-09-23T20:56:19.827Z,57.80
2018-09-23T20:58:48.080Z,57.90
2018-09-23T21:01:17.021Z,57.70
2018-09-23T21:03:45.434Z,57.56
2018-09-23T21:06:13.760Z,57.57
2018-09-23T21:08:41.986Z,57.53
2018-09-23T21:11:10.485Z,57.80
2018-09-23T21:13:39.169Z,57.80
2018-09-23T21:16:07.546Z,57.71
2018-09-23T21:18:35.953Z,57.31
2018-09-23T21:21:04.188Z,57.57
2018-09-23T21:23:32.492Z,57.27
2018-09-23T21:26:00.814Z,57.23
2018-09-23T21:28:29.174Z,57.61
2018-09-23T21:30:57.437Z,57.31
2018-09-23T21:33:25.674Z,57.13
2018-09-23T21:35:53.967Z,57.47
2018-09-23T21:38:22.283Z,57.64
2018-09-23T21:40:50.569Z,57.03
2018-09-23T21:43:18.809Z,57.07
2018-09-23T21:45:47.102Z,57.60
2018-09-23T21:48:15.371Z,57.22
2018-09-23T21:50:43.750Z,57.70
2018-09-23T21:53:12.292Z,57.25
2018-09-23T21:55:40.636Z,57.24
2018-09-23T21:58:09.065Z,57.62
2018-09-23T22:00:44.508Z,57.23
2018-09-23T22:03:14.639Z,57.18
2018-09-23T22:05:43.371Z,57.24
2018-09-23T22:08:12.603Z,57.52
2018-09-23T22:10:41.824Z,57.39
2018-09-23T22:13:10.443Z,57.09
2018-09-23T22:15:38.802Z,57.20
2018-09-23T22:18:07.121Z,57.68
2018-09-23T22:20:35.327Z,57.16
2018-09-23T22:23:03.794Z,57.52
2018-09-23T22:25:32.202Z,57.33
2018-09-23T22:28:00.518Z,57.29
2018-09-23T22:30:29.291Z,57.64
2018-09-23T22:32:57.713Z,57.06
2018-09-23T22:35:26.284Z,57.44
2018-09-23T22:37:54.582Z,57.29
2018-09-23T22:40:22.905Z,57.27
2018-09-23T22:42:51.263Z,57.66
2018-09-23T22:45:19.922Z,57.40
2018-09-23T22:47:48.345Z,57.17
2018-09-23T22:50:17.044Z,57.33
2018-09-23T22:52:45.302Z,56.95
2018-09-23T22:55:13.558Z,57.13
2018-09-23T22:57:41.902Z,56.90
2018-09-23T23:00:10.815Z,57.46
2018-09-23T23:02:39.067Z,57.47
2018-09-23T23:05:07.551Z,57.11
2018-09-23T23:07:35.815Z,57.13
2018-09-23T23:10:04.129Z,57.05
2018-09-23T23:12:32.379Z,57.29
2018-09-23T23:15:00.718Z,57.01
2018-09-23T23:17:29.092Z,57.41
2018-09-23T23:19:58.501Z,57.38
2018-09-23T23:22:27.026Z,57.07
2018-09-23T23:24:55.262Z,57.39
2018-09-23T23:27:23.559Z,57.02
2018-09-23T23:29:51.837Z,56.91
2018-09-23T23:32:20.082Z,57.29
2018-09-23T23:34:48.335Z,57.28
2018-09-23T23:37:16.716Z,57.38
2018-09-23T23:39:44.966Z,57.38
2018-09-23T23:43:42.405Z,57.33
2018-09-23T23:46:10.628Z,56.93
2018-09-23T23:48:38.869Z,57.18
2018-09-23T23:51:07.149Z,57.23
2018-09-23T23:53:35.438Z,57.21
2018-09-23T23:56:03.800Z,57.24
2018-09-23T23:58:32.088Z,56.90
